createdAt,value
2022-11-18T00:00:10.790Z,64.86
2022-11-18T00:01:32.411Z,65.06
2022-11-18T00:02:54.892Z,65.05
2022-11-18T00:04:24.361Z,64.97
2022-11-18T00:05:54.091Z,65.17
2022-11-18T00:07:16.810Z,65.00
2022-11-18T00:08:38.284Z,64.94
2022-11-18T00:10:00.466Z,64.69
2022-11-18T00:11:45.500Z,64.81
2022-11-18T00:13:30.692Z,64.89
2022-11-18T00:14:53.081Z,64.69
2022-11-18T00:16:14.246Z,64.85
2022-11-18T00:17:38.923Z,64.76
2022-11-18T00:19:00.622Z,64.98
2022-11-18T00:20:25.160Z,65.06
2022-11-18T00:21:46.438Z,64.91
2022-11-18T00:23:08.848Z,64.74
2022-11-18T00:24:31.274Z,65.27
2022-11-18T00:25:52.669Z,64.96
2022-11-18T00:27:16.541Z,65.30
2022-11-18T00:28:41.908Z,65.15
2022-11-18T00:30:03.986Z,65.18
2022-11-18T00:31:25.653Z,65.28
2022-11-18T00:32:48.685Z,65.19
2022-11-18T00:34:12.375Z,65.09
2022-11-18T00:35:34.469Z,65.27
2022-11-18T00:36:58.100Z,65.21
2022-11-18T00:38:20.234Z,65.13
2022-11-18T00:39:42.094Z,65.03
2022-11-18T00:41:05.620Z,65.18
2022-11-18T00:42:46.967Z,65.16
2022-11-18T00:44:09.715Z,65.11
2022-11-18T00:45:31.120Z,65.26
2022-11-18T00:46:53.651Z,65.32
2022-11-18T00:48:15.154Z,65.23
2022-11-18T00:49:37.622Z,65.09
2022-11-18T00:51:07.466Z,65.16
2022-11-18T00:52:40.076Z,64.95
2022-11-18T00:54:01.229Z,65.31
2022-11-18T00:55:24.453Z,65.20
2022-11-18T00:56:45.955Z,65.60
2022-11-18T00:58:10.080Z,65.17
2022-11-18T00:59:32.174Z,65.17
2022-11-18T01:00:53.600Z,65.22
2022-11-18T01:02:16.249Z,65.31
2022-11-18T01:03:36.839Z,65.33
2022-11-18T01:04:58.873Z,65.38
2022-11-18T01:06:20.114Z,65.34
2022-11-18T01:07:42.412Z,65.33
2022-11-18T01:09:05.170Z,65.49
2022-11-18T01:10:26.059Z,65.32
2022-11-18T01:12:05.699Z,65.25
2022-11-18T01:13:31.640Z,65.04
2022-11-18T01:14:52.693Z,65.14
2022-11-18T01:16:20.421Z,64.92
2022-11-18T01:17:45.283Z,64.95
2022-11-18T01:19:09.018Z,64.74
2022-11-18T01:20:33.745Z,64.76
2022-11-18T01:21:56.658Z,64.46
2022-11-18T01:23:20.437Z,64.76
2022-11-18T01:24:45.407Z,64.78
2022-11-18T01:26:08.565Z,64.76
2022-11-18T01:27:31.031Z,64.79
2022-11-18T01:28:56.063Z,64.79
2022-11-18T01:30:18.840Z,64.81
2022-11-18T01:31:55.514Z,64.93
2022-11-18T01:33:23.186Z,64.72
2022-11-18T01:34:48.168Z,64.64
2022-11-18T01:36:17.740Z,64.93
2022-11-18T01:37:40.049Z,64.93
2022-11-18T01:39:01.579Z,64.91
2022-11-18T01:40:23.509Z,64.84
2022-11-18T01:41:45.800Z,64.79
2022-11-18T01:43:16.566Z,65.00
2022-11-18T01:45:05.225Z,64.88
2022-11-18T01:46:29.581Z,65.08
2022-11-18T01:47:55.446Z,65.19
2022-11-18T01:49:17.132Z,64.99
2022-11-18T01:50:46.130Z,65.19
2022-11-18T01:52:08.309Z,64.91
2022-11-18T01:53:34.796Z,65.01
2022-11-18T01:55:03.238Z,65.13
2022-11-18T01:56:30.971Z,65.34
2022-11-18T01:58:01.482Z,65.37
2022-11-18T01:59:27.487Z,65.43
2022-11-18T02:00:50.425Z,65.43
2022-11-18T02:02:15.755Z,65.47
2022-11-18T02:03:38.993Z,65.33
2022-11-18T02:05:03.366Z,65.42
2022-11-18T02:06:25.984Z,65.35
2022-11-18T02:07:47.488Z,65.11
2022-11-18T02:09:09.956Z,65.18
2022-11-18T02:10:31.287Z,65.27
2022-11-18T02:11:54.625Z,65.35
2022-11-18T02:13:17.479Z,65.55
2022-11-18T02:14:41.308Z,65.41
2022-11-18T02:16:13.746Z,65.56
2022-11-18T02:17:46.115Z,65.48
2022-11-18T02:19:16.874Z,65.46
2022-11-18T02:20:43.131Z,65.42
2022-11-18T02:22:19.495Z,65.31
2022-11-18T02:24:11.714Z,65.46
2022-11-18T02:25:43.948Z,65.41
2022-11-18T02:27:26.580Z,65.57
2022-11-18T02:29:01.285Z,65.57
2022-11-18T02:30:25.022Z,65.40
2022-11-18T02:31:53.821Z,65.35
2022-11-18T02:33:23.571Z,65.11
2022-11-18T02:34:53.384Z,65.18
2022-11-18T02:36:29.876Z,65.20
2022-11-18T02:37:58.428Z,65.46
2022-11-18T02:39:26.276Z,65.46
2022-11-18T02:40:52.715Z,65.36
2022-11-18T02:42:17.779Z,65.42
2022-11-18T02:43:44.761Z,65.28
2022-11-18T02:45:13.642Z,65.45
2022-11-18T02:46:39.351Z,65.60
2022-11-18T02:48:08.521Z,65.70
2022-11-18T02:49:36.720Z,65.73
2022-11-18T02:51:01.385Z,65.44
2022-11-18T02:52:24.999Z,65.71
2022-11-18T02:53:49.632Z,65.53
2022-11-18T02:55:15.205Z,65.36
2022-11-18T02:56:38.086Z,65.45
2022-11-18T02:58:02.100Z,65.67
2022-11-18T02:59:23.231Z,65.78
2022-11-18T03:00:46.872Z,65.78
2022-11-18T03:02:10.632Z,66.08
2022-11-18T03:03:34.654Z,66.15
2022-11-18T03:04:58.097Z,65.87
2022-11-18T03:06:28.969Z,65.68
2022-11-18T03:07:56.869Z,65.83
2022-11-18T03:09:26.240Z,65.60
2022-11-18T03:10:53.262Z,65.76
2022-11-18T03:12:24.579Z,65.49
2022-11-18T03:14:05.978Z,65.81
2022-11-18T03:15:38.952Z,65.71
2022-11-18T03:17:04.320Z,65.81
2022-11-18T03:18:30.653Z,66.13
2022-11-18T03:20:12.325Z,65.99
2022-11-18T03:21:37.886Z,66.10
2022-11-18T03:23:08.176Z,65.93
2022-11-18T03:24:32.805Z,65.92
2022-11-18T03:25:59.246Z,66.06
2022-11-18T03:27:26.985Z,65.95
2022-11-18T03:28:57.740Z,66.08
2022-11-18T03:30:23.553Z,65.99
2022-11-18T03:31:49.618Z,65.92
2022-11-18T03:33:19.708Z,65.80
2022-11-18T03:34:45.084Z,65.82
2022-11-18T03:36:12.038Z,65.84
2022-11-18T03:37:35.599Z,65.95
2022-11-18T03:39:02.833Z,65.73
2022-11-18T03:40:27.387Z,65.67
2022-11-18T03:41:54.887Z,65.56
2022-11-18T03:43:19.793Z,65.66
2022-11-18T03:44:52.199Z,65.65
2022-11-18T03:46:18.384Z,65.81
2022-11-18T03:47:45.869Z,65.61
2022-11-18T03:49:17.376Z,65.41
2022-11-18T03:50:44.814Z,65.24
2022-11-18T03:52:12.822Z,65.44
2022-11-18T03:53:36.782Z,65.54
2022-11-18T03:55:03.913Z,65.46
2022-11-18T03:56:31.565Z,65.56
2022-11-18T03:57:59.015Z,65.62
2022-11-18T03:59:25.538Z,65.53
2022-11-18T04:00:51.145Z,65.65
2022-11-18T04:02:17.036Z,65.71
2022-11-18T04:03:38.479Z,65.90
2022-11-18T04:05:04.233Z,65.88
2022-11-18T04:06:33.817Z,65.84
2022-11-18T04:07:58.096Z,65.84
2022-11-18T04:09:24.366Z,65.79
2022-11-18T04:10:52.230Z,65.92
2022-11-18T04:12:16.566Z,65.80
2022-11-18T04:13:39.097Z,65.81
2022-11-18T04:15:00.365Z,65.90
2022-11-18T04:16:22.508Z,65.95
2022-11-18T04:17:44.906Z,66.03
2022-11-18T04:19:06.452Z,66.27
2022-11-18T04:20:31.821Z,66.33
2022-11-18T04:21:53.685Z,66.01
2022-11-18T04:23:16.086Z,66.42
2022-11-18T04:24:37.501Z,66.40
2022-11-18T04:25:59.692Z,66.56
2022-11-18T04:27:20.622Z,66.52
2022-11-18T04:28:42.849Z,66.27
2022-11-18T04:30:03.608Z,66.39
2022-11-18T04:31:25.518Z,66.23
2022-11-18T04:32:47.490Z,66.56
2022-11-18T04:34:08.728Z,66.37
2022-11-18T04:35:32.380Z,66.65
2022-11-18T04:36:53.752Z,66.62
2022-11-18T04:38:21.633Z,66.72
2022-11-18T04:39:43.346Z,66.42
2022-11-18T04:41:06.117Z,66.74
2022-11-18T04:42:27.118Z,66.67
2022-11-18T04:43:49.180Z,66.71
2022-11-18T04:45:12.725Z,66.73
2022-11-18T04:46:33.653Z,66.62
2022-11-18T04:48:01.959Z,66.68
2022-11-18T04:49:25.655Z,66.72
2022-11-18T04:50:49.160Z,66.58
2022-11-18T04:52:11.720Z,66.56
2022-11-18T04:53:33.943Z,66.53
2022-11-18T04:54:55.961Z,66.55
2022-11-18T04:56:17.151Z,66.83
2022-11-18T04:57:39.494Z,66.68
2022-11-18T04:59:06.927Z,66.70
2022-11-18T05:00:29.233Z,66.76
2022-11-18T05:01:50.718Z,66.64
2022-11-18T05:03:17.730Z,66.65
2022-11-18T05:04:42.050Z,67.09
2022-11-18T05:06:07.155Z,66.95
2022-11-18T05:07:29.765Z,67.18
2022-11-18T05:08:50.694Z,67.04
2022-11-18T05:10:12.798Z,67.07
2022-11-18T05:11:52.020Z,66.88
2022-11-18T05:13:13.592Z,66.65
2022-11-18T05:14:37.785Z,66.52
2022-11-18T05:16:05.176Z,66.50
2022-11-18T05:17:27.356Z,66.58
2022-11-18T05:18:48.452Z,66.61
2022-11-18T05:20:11.333Z,66.58
2022-11-18T05:21:34.169Z,66.64
2022-11-18T05:22:56.510Z,66.52
2022-11-18T05:24:18.059Z,66.54
2022-11-18T05:25:40.073Z,66.57
2022-11-18T05:27:01.344Z,66.62
2022-11-18T05:28:23.874Z,66.79
2022-11-18T05:29:46.219Z,66.64
2022-11-18T05:31:08.635Z,66.89
2022-11-18T05:32:31.003Z,67.05
2022-11-18T05:33:52.388Z,66.87
2022-11-18T05:35:14.924Z,66.92
2022-11-18T05:36:37.488Z,66.57
2022-11-18T05:38:00.137Z,66.55
2022-11-18T05:39:22.451Z,66.66
2022-11-18T05:40:46.649Z,66.47
2022-11-18T05:42:26.950Z,66.07
2022-11-18T05:43:49.319Z,65.81
2022-11-18T05:45:09.970Z,65.94
2022-11-18T05:46:33.729Z,65.98
2022-11-18T05:48:01.681Z,65.91
2022-11-18T05:49:23.578Z,65.94
2022-11-18T05:50:48.660Z,65.78
2022-11-18T05:52:12.441Z,65.82
2022-11-18T05:53:34.473Z,66.09
2022-11-18T05:54:57.479Z,66.00
2022-11-18T05:56:22.869Z,66.01
2022-11-18T05:57:44.971Z,66.26
2022-11-18T05:59:07.809Z,66.04
2022-11-18T06:00:31.164Z,66.22
2022-11-18T06:01:57.840Z,66.19
2022-11-18T06:03:29.108Z,66.02
2022-11-18T06:04:57.674Z,65.89
2022-11-18T06:06:23.097Z,65.72
2022-11-18T06:07:47.471Z,65.32
2022-11-18T06:09:11.740Z,65.38
2022-11-18T06:10:38.962Z,65.64
2022-11-18T06:12:03.779Z,65.47
2022-11-18T06:13:36.306Z,65.50
2022-11-18T06:15:01.045Z,65.59
2022-11-18T06:16:28.186Z,65.67
2022-11-18T06:17:54.719Z,65.20
2022-11-18T06:19:17.722Z,65.36
2022-11-18T06:20:42.597Z,65.32
2022-11-18T06:22:05.444Z,65.56
2022-11-18T06:23:30.379Z,65.59
2022-11-18T06:24:53.017Z,65.55
2022-11-18T06:26:17.074Z,65.52
2022-11-18T06:27:39.162Z,65.74
2022-11-18T06:29:01.529Z,65.59
2022-11-18T06:30:23.202Z,65.78
2022-11-18T06:31:44.610Z,65.69
2022-11-18T06:33:06.519Z,65.75
2022-11-18T06:34:30.550Z,65.60
2022-11-18T06:35:52.843Z,65.53
2022-11-18T06:37:16.145Z,65.43
2022-11-18T06:38:39.564Z,65.20
2022-11-18T06:40:01.810Z,65.36
2022-11-18T06:41:23.378Z,65.22
2022-11-18T06:43:02.454Z,65.36
2022-11-18T06:44:24.737Z,65.23
2022-11-18T06:46:09.069Z,65.31
2022-11-18T06:47:31.476Z,65.09
2022-11-18T06:48:52.801Z,65.05
2022-11-18T06:50:15.073Z,65.12
2022-11-18T06:51:39.609Z,64.93
2022-11-18T06:53:02.698Z,65.03
2022-11-18T06:54:26.411Z,65.35
2022-11-18T06:55:47.582Z,65.04
2022-11-18T06:57:09.647Z,65.04
2022-11-18T06:58:31.972Z,65.21
2022-11-18T06:59:59.066Z,65.10
2022-11-18T07:01:25.494Z,65.01
2022-11-18T07:02:47.876Z,65.01
2022-11-18T07:04:10.243Z,64.61
2022-11-18T07:05:31.765Z,64.70
2022-11-18T07:06:54.392Z,64.75
2022-11-18T07:08:16.638Z,64.88
2022-11-18T07:09:40.490Z,64.79
2022-11-18T07:11:01.852Z,65.04
2022-11-18T07:12:24.086Z,64.93
2022-11-18T07:13:46.877Z,64.80
2022-11-18T07:15:12.691Z,64.76
2022-11-18T07:16:40.635Z,65.16
2022-11-18T07:18:01.788Z,64.93
2022-11-18T07:19:24.123Z,64.93
2022-11-18T07:20:45.364Z,65.23
2022-11-18T07:22:08.248Z,64.99
2022-11-18T07:23:29.150Z,65.04
2022-11-18T07:24:53.530Z,65.28
2022-11-18T07:26:16.419Z,65.26
2022-11-18T07:27:37.849Z,64.92
2022-11-18T07:29:00.163Z,64.83
2022-11-18T07:30:22.113Z,65.02
2022-11-18T07:31:44.415Z,64.39
2022-11-18T07:33:05.769Z,64.39
2022-11-18T07:34:31.163Z,64.02
2022-11-18T07:35:52.180Z,64.31
2022-11-18T07:37:14.552Z,64.25
2022-11-18T07:38:37.317Z,64.08
2022-11-18T07:40:01.245Z,64.55
2022-11-18T07:41:25.544Z,64.39
2022-11-18T07:42:47.624Z,64.80
2022-11-18T07:44:18.976Z,64.72
2022-11-18T07:45:44.299Z,64.27
2022-11-18T07:47:06.563Z,64.33
2022-11-18T07:48:28.634Z,64.27
2022-11-18T07:49:50.752Z,64.08
2022-11-18T07:51:13.616Z,64.06
2022-11-18T07:52:34.918Z,64.05
2022-11-18T07:53:59.865Z,64.16
2022-11-18T07:55:26.877Z,63.97
2022-11-18T07:56:54.991Z,63.93
2022-11-18T07:58:16.102Z,63.51
2022-11-18T07:59:38.191Z,63.49
2022-11-18T08:01:00.673Z,63.24
2022-11-18T08:02:22.641Z,63.45
2022-11-18T08:03:45.482Z,63.56
2022-11-18T08:05:12.152Z,63.67
2022-11-18T08:06:39.524Z,63.44
2022-11-18T08:08:01.661Z,63.46
2022-11-18T08:09:22.455Z,63.51
2022-11-18T08:10:46.204Z,63.84
2022-11-18T08:12:08.574Z,63.75
2022-11-18T08:13:31.222Z,63.70
2022-11-18T08:14:53.084Z,63.33
2022-11-18T08:16:20.051Z,63.22
2022-11-18T08:17:42.850Z,63.48
2022-11-18T08:19:08.547Z,63.61
2022-11-18T08:20:30.720Z,63.39
2022-11-18T08:21:52.628Z,63.42
2022-11-18T08:23:18.715Z,63.40
2022-11-18T08:24:40.951Z,63.47
2022-11-18T08:26:07.196Z,63.16
2022-11-18T08:27:29.744Z,62.85
2022-11-18T08:28:52.351Z,62.58
2022-11-18T08:30:15.376Z,62.69
2022-11-18T08:31:37.438Z,62.55
2022-11-18T08:32:59.884Z,62.58
2022-11-18T08:34:21.525Z,62.85
2022-11-18T08:35:43.769Z,62.84
2022-11-18T08:37:05.977Z,63.09
2022-11-18T08:38:28.670Z,62.98
2022-11-18T08:39:51.591Z,62.56
2022-11-18T08:41:17.314Z,62.99
2022-11-18T08:42:39.500Z,62.83
2022-11-18T08:44:02.237Z,62.54
2022-11-18T08:45:24.351Z,62.52
2022-11-18T08:46:47.041Z,62.04
2022-11-18T08:48:11.372Z,62.14
2022-11-18T08:49:33.637Z,62.02
2022-11-18T08:50:56.368Z,61.71
2022-11-18T08:52:20.558Z,61.60
2022-11-18T08:54:09.596Z,61.26
2022-11-18T08:55:32.339Z,61.05
2022-11-18T08:56:56.117Z,60.72
2022-11-18T08:58:18.390Z,60.80
2022-11-18T08:59:40.666Z,60.69
2022-11-18T09:01:05.936Z,60.67
2022-11-18T09:02:29.983Z,60.38
2022-11-18T09:03:52.738Z,60.22
2022-11-18T09:05:15.203Z,60.57
2022-11-18T09:06:38.637Z,60.42
2022-11-18T09:08:01.299Z,60.46
2022-11-18T09:09:24.427Z,60.32
2022-11-18T09:10:46.746Z,59.95
2022-11-18T09:12:14.595Z,59.73
2022-11-18T09:14:14.430Z,59.59
2022-11-18T09:15:19.775Z,59.87
2022-11-18T09:16:42.567Z,59.66
2022-11-18T09:18:05.430Z,59.42
2022-11-18T09:21:11.629Z,59.53
2022-11-18T09:22:34.125Z,59.57
2022-11-18T09:23:56.243Z,59.80
2022-11-18T09:25:18.481Z,59.82
2022-11-18T09:26:41.362Z,59.81
2022-11-18T09:28:05.130Z,59.50
2022-11-18T09:29:27.470Z,59.10
2022-11-18T09:30:49.981Z,59.04
2022-11-18T09:32:12.276Z,59.42
2022-11-18T09:33:34.699Z,59.35
2022-11-18T09:34:57.447Z,59.67
2022-11-18T09:36:21.455Z,59.53
2022-11-18T09:37:43.491Z,59.79
2022-11-18T09:39:09.084Z,59.76
2022-11-18T09:40:31.238Z,59.90
2022-11-18T09:41:56.552Z,59.92
2022-11-18T09:43:30.042Z,60.01
2022-11-18T09:45:15.354Z,59.99
2022-11-18T09:46:52.752Z,59.86
2022-11-18T09:48:19.678Z,59.71
2022-11-18T09:49:47.771Z,59.69
2022-11-18T09:51:14.111Z,59.53
2022-11-18T09:52:41.943Z,59.61
2022-11-18T09:54:02.987Z,59.74
2022-11-18T09:55:25.411Z,59.30
2022-11-18T09:56:48.543Z,59.52
2022-11-18T09:58:18.374Z,59.15
2022-11-18T09:59:42.352Z,58.84
2022-11-18T10:01:05.670Z,58.93
2022-11-18T10:02:50.423Z,59.07
2022-11-18T10:04:25.504Z,59.24
2022-11-18T10:05:59.492Z,58.83
2022-11-18T10:07:30.240Z,58.72
2022-11-18T10:09:05.667Z,58.75
2022-11-18T10:10:35.282Z,58.55
2022-11-18T10:12:16.215Z,58.36
2022-11-18T10:13:56.898Z,58.18
2022-11-18T10:15:26.752Z,58.29
2022-11-18T10:16:58.140Z,58.06
2022-11-18T10:18:58.358Z,58.47
2022-11-18T10:20:26.542Z,58.26
2022-11-18T10:22:02.232Z,58.45
2022-11-18T10:23:33.712Z,58.48
2022-11-18T10:24:57.719Z,58.30
2022-11-18T10:26:36.498Z,58.41
2022-11-18T10:28:15.170Z,58.35
2022-11-18T10:29:37.541Z,58.42
2022-11-18T10:31:08.586Z,58.02
2022-11-18T10:32:30.748Z,58.00
2022-11-18T10:34:00.752Z,57.47
2022-11-18T10:35:27.684Z,57.38
2022-11-18T10:37:01.369Z,57.45
2022-11-18T10:38:23.700Z,57.57
2022-11-18T10:39:55.326Z,57.71
2022-11-18T10:41:20.122Z,57.17
2022-11-18T10:42:46.059Z,57.19
2022-11-18T10:44:37.782Z,56.91
2022-11-18T10:46:25.262Z,57.37
2022-11-18T10:47:59.281Z,57.24
2022-11-18T10:49:21.653Z,57.49
2022-11-18T10:50:49.224Z,57.60
2022-11-18T10:52:16.428Z,57.52
2022-11-18T10:53:39.247Z,57.81
2022-11-18T10:55:23.205Z,57.73
2022-11-18T10:56:57.778Z,57.54
2022-11-18T10:58:20.941Z,57.34
2022-11-18T10:59:51.408Z,56.99
2022-11-18T11:01:24.463Z,57.03
2022-11-18T11:02:49.816Z,57.03
2022-11-18T11:04:21.301Z,57.31
2022-11-18T11:05:44.140Z,57.16
2022-11-18T11:07:17.868Z,56.90
2022-11-18T11:08:49.620Z,57.19
2022-11-18T11:10:24.696Z,56.89
2022-11-18T11:11:59.566Z,56.83
2022-11-18T11:13:21.130Z,56.34
2022-11-18T11:14:52.485Z,56.47
2022-11-18T11:16:23.427Z,56.28
2022-11-18T11:18:09.082Z,56.30
2022-11-18T11:19:41.959Z,56.53
2022-11-18T11:21:04.228Z,56.37
2022-11-18T11:22:26.774Z,56.44
2022-11-18T11:23:47.812Z,56.07
2022-11-18T11:25:15.137Z,56.37
2022-11-18T11:28:32.913Z,56.19
2022-11-18T11:30:09.881Z,56.13
2022-11-18T11:31:40.972Z,55.95
2022-11-18T11:33:20.916Z,56.08
2022-11-18T11:34:51.424Z,56.12
2022-11-18T11:36:27.105Z,55.98
2022-11-18T11:37:55.300Z,56.27
2022-11-18T11:39:38.945Z,56.12
2022-11-18T11:41:10.659Z,56.20
2022-11-18T11:42:50.418Z,55.96
2022-11-18T11:44:38.182Z,55.76
2022-11-18T11:46:20.104Z,55.94
2022-11-18T11:48:00.377Z,55.99
2022-11-18T11:49:31.388Z,56.16
2022-11-18T11:51:05.379Z,55.98
2022-11-18T11:52:50.848Z,56.19
2022-11-18T11:54:33.198Z,56.33
2022-11-18T11:56:06.103Z,56.39
2022-11-18T11:57:43.941Z,56.48
2022-11-18T11:59:16.163Z,56.58
2022-11-18T12:00:42.503Z,56.65
2022-11-18T12:02:36.332Z,56.94
2022-11-18T12:04:09.623Z,57.01
2022-11-18T12:05:45.547Z,57.04
2022-11-18T12:07:24.062Z,57.11
2022-11-18T12:09:00.886Z,57.14
2022-11-18T12:10:34.160Z,57.13
2022-11-18T12:12:02.443Z,57.19
2022-11-18T12:13:43.231Z,57.54
2022-11-18T12:15:23.636Z,57.73
2022-11-18T12:16:55.027Z,57.77
2022-11-18T12:18:24.398Z,57.85
2022-11-18T12:19:46.673Z,57.92
2022-11-18T12:21:55.056Z,58.21
2022-11-18T12:23:20.237Z,58.21
2022-11-18T12:24:46.779Z,58.29
2022-11-18T12:26:11.567Z,58.17
2022-11-18T12:28:00.542Z,58.29
2022-11-18T12:29:27.775Z,58.63
2022-11-18T12:30:50.198Z,58.55
2022-11-18T12:32:31.372Z,58.90
2022-11-18T12:33:57.590Z,58.63
2022-11-18T12:35:30.021Z,58.67
2022-11-18T12:36:58.186Z,58.73
2022-11-18T12:38:32.182Z,58.26
2022-11-18T12:40:03.600Z,58.49
2022-11-18T12:42:11.460Z,58.63
2022-11-18T12:44:07.413Z,58.86
2022-11-18T12:45:58.302Z,58.89
2022-11-18T12:47:59.340Z,59.07
2022-11-18T12:50:13.596Z,58.98
2022-11-18T12:51:42.938Z,59.35
2022-11-18T12:53:12.350Z,59.56
2022-11-18T12:54:38.346Z,59.29
2022-11-18T12:56:00.306Z,59.28
2022-11-18T12:57:24.232Z,59.71
2022-11-18T12:58:47.431Z,59.90
2022-11-18T13:00:30.207Z,59.70
2022-11-18T13:02:04.080Z,59.78
2022-11-18T13:03:30.934Z,59.56
2022-11-18T13:05:10.444Z,59.72
2022-11-18T13:06:34.679Z,59.89
2022-11-18T13:08:14.346Z,59.75
2022-11-18T13:09:38.410Z,59.88
2022-11-18T13:11:29.281Z,60.22
2022-11-18T13:12:52.602Z,60.09
2022-11-18T13:14:36.365Z,60.10
2022-11-18T13:16:20.916Z,59.99
2022-11-18T13:17:54.912Z,60.13
2022-11-18T13:19:23.636Z,60.20
2022-11-18T13:20:56.522Z,60.13
2022-11-18T13:22:36.940Z,60.29
2022-11-18T13:24:01.363Z,60.08
2022-11-18T13:25:26.351Z,60.29
2022-11-18T13:26:54.552Z,60.02
2022-11-18T13:28:27.141Z,60.08
2022-11-18T13:29:54.655Z,60.06
2022-11-18T13:31:26.150Z,59.79
2022-11-18T13:32:49.853Z,59.79
2022-11-18T13:34:22.218Z,59.90
2022-11-18T13:35:46.429Z,59.79
2022-11-18T13:37:20.026Z,59.75
2022-11-18T13:38:56.584Z,59.43
2022-11-18T13:40:21.644Z,59.47
2022-11-18T13:41:46.950Z,59.55
2022-11-18T13:43:12.425Z,59.46
2022-11-18T13:44:37.369Z,59.52
2022-11-18T13:46:01.670Z,59.05
2022-11-18T13:47:37.313Z,59.20
2022-11-18T13:49:00.807Z,59.40
2022-11-18T13:50:28.660Z,59.16
2022-11-18T13:51:51.934Z,59.31
2022-11-18T13:53:30.657Z,59.03
2022-11-18T13:54:55.229Z,59.15
2022-11-18T13:56:21.573Z,59.10
2022-11-18T13:57:48.490Z,58.60
2022-11-18T13:59:18.578Z,58.44
2022-11-18T14:00:41.081Z,58.43
2022-11-18T14:02:02.678Z,57.99
2022-11-18T14:03:30.080Z,58.24
2022-11-18T14:04:56.465Z,58.05
2022-11-18T14:06:26.829Z,57.53
2022-11-18T14:08:05.468Z,57.75
2022-11-18T14:09:29.387Z,57.59
2022-11-18T14:10:51.516Z,57.32
2022-11-18T14:12:25.216Z,56.98
2022-11-18T14:13:55.173Z,56.89
2022-11-18T14:15:23.319Z,57.20
2022-11-18T14:16:45.463Z,57.00
2022-11-18T14:18:21.264Z,57.02
2022-11-18T14:19:43.731Z,57.56
2022-11-18T14:21:07.067Z,57.26
2022-11-18T14:22:31.040Z,57.17
2022-11-18T14:23:53.221Z,57.64
2022-11-18T14:25:25.925Z,57.67
2022-11-18T14:26:52.737Z,57.55
2022-11-18T14:28:31.372Z,57.59
2022-11-18T14:29:57.236Z,57.45
2022-11-18T14:31:33.484Z,57.88
2022-11-18T14:33:20.929Z,57.99
2022-11-18T14:34:43.856Z,57.85
2022-11-18T14:36:17.938Z,57.86
2022-11-18T14:37:43.860Z,57.62
2022-11-18T14:41:13.932Z,57.55
2022-11-18T14:43:02.578Z,57.43
2022-11-18T14:44:27.124Z,57.27
2022-11-18T14:46:04.144Z,57.16
2022-11-18T14:47:30.500Z,57.13
2022-11-18T14:49:05.993Z,57.05
2022-11-18T14:50:28.678Z,57.22
2022-11-18T14:51:59.156Z,57.13
2022-11-18T14:53:28.014Z,57.10
2022-11-18T14:54:50.489Z,56.88
2022-11-18T14:56:19.423Z,56.90
2022-11-18T14:57:46.033Z,57.10
2022-11-18T15:01:18.833Z,57.23
2022-11-18T15:02:49.339Z,56.98
2022-11-18T15:05:14.666Z,56.90
2022-11-18T15:06:53.810Z,57.10
2022-11-18T15:13:58.795Z,57.53
2022-11-18T15:15:40.817Z,57.75
2022-11-18T15:17:58.746Z,57.63
2022-11-18T15:19:46.810Z,57.75
2022-11-18T15:21:45.658Z,57.98
2022-11-18T15:23:11.402Z,58.19
2022-11-18T15:25:06.943Z,58.19
2022-11-18T15:26:42.175Z,58.34
2022-11-18T15:28:11.860Z,58.22
2022-11-18T15:29:34.891Z,58.37
2022-11-18T15:30:58.284Z,58.26
2022-11-18T15:32:34.408Z,58.47
2022-11-18T15:34:24.553Z,58.26
2022-11-18T15:36:03.289Z,58.83
2022-11-18T15:37:29.202Z,58.38
2022-11-18T15:39:01.636Z,58.68
2022-11-18T15:40:26.336Z,58.69
2022-11-18T15:41:55.914Z,58.81
2022-11-18T15:43:19.360Z,58.88
2022-11-18T15:44:41.779Z,59.08
2022-11-18T15:46:09.754Z,59.08
2022-11-18T15:47:36.495Z,59.06
2022-11-18T15:49:04.476Z,59.14
2022-11-18T15:50:27.216Z,59.22
2022-11-18T15:51:50.028Z,59.34
2022-11-18T15:53:14.002Z,59.46
2022-11-18T15:54:37.434Z,59.54
2022-11-18T16:08:05.812Z,59.25
2022-11-18T16:10:03.694Z,59.35
2022-11-18T16:11:50.956Z,58.98
2022-11-18T16:13:18.180Z,59.11
2022-11-18T16:14:40.559Z,59.23
2022-11-18T16:16:04.599Z,59.51
2022-11-18T16:17:26.919Z,58.80
2022-11-18T16:18:49.707Z,58.94
2022-11-18T16:20:15.235Z,58.83
2022-11-18T16:21:58.727Z,58.95
2022-11-18T16:23:22.852Z,59.05
2022-11-18T16:24:48.625Z,58.67
2022-11-18T16:26:17.075Z,58.82
2022-11-18T16:27:40.229Z,58.83
2022-11-18T16:29:09.391Z,58.94
2022-11-18T16:30:53.498Z,58.85
2022-11-18T16:32:15.846Z,58.60
2022-11-18T16:33:37.307Z,58.62
2022-11-18T16:35:02.832Z,58.43
2022-11-18T16:36:30.051Z,58.68
2022-11-18T16:37:56.710Z,58.35
2022-11-18T16:39:23.717Z,58.90
2022-11-18T16:40:54.788Z,58.78
2022-11-18T16:42:20.749Z,58.69
2022-11-18T16:44:06.693Z,58.46
2022-11-18T16:45:32.788Z,58.80
2022-11-18T16:46:59.627Z,58.93
2022-11-18T16:48:24.389Z,58.73
2022-11-18T16:49:50.812Z,58.84
2022-11-18T16:51:25.483Z,58.69
2022-11-18T16:52:48.589Z,58.65
2022-11-18T16:54:44.670Z,58.91
2022-11-18T16:56:44.652Z,59.04
2022-11-18T16:58:25.019Z,58.88
2022-11-18T16:59:47.515Z,58.90
2022-11-18T17:01:24.633Z,59.08
2022-11-18T17:02:50.989Z,59.53
2022-11-18T17:04:24.311Z,59.46
2022-11-18T17:06:07.633Z,59.71
2022-11-18T17:07:38.276Z,59.96
2022-11-18T17:09:21.587Z,59.71
2022-11-18T17:10:48.751Z,59.83
2022-11-18T17:12:11.003Z,59.85
2022-11-18T17:13:33.295Z,60.07
2022-11-18T17:14:59.223Z,59.51
2022-11-18T17:16:25.661Z,59.49
2022-11-18T17:17:47.733Z,59.76
2022-11-18T17:19:16.052Z,59.62
2022-11-18T17:20:38.599Z,59.63
2022-11-18T17:22:16.640Z,59.32
2022-11-18T17:24:00.955Z,59.36
2022-11-18T17:25:23.289Z,59.50
2022-11-18T17:26:47.690Z,59.47
2022-11-18T17:28:10.177Z,59.46
2022-11-18T17:29:33.095Z,59.31
2022-11-18T17:30:56.838Z,59.18
2022-11-18T17:32:19.339Z,59.26
2022-11-18T17:33:40.609Z,59.24
2022-11-18T17:35:05.089Z,59.00
2022-11-18T17:36:28.855Z,59.16
2022-11-18T17:37:51.075Z,59.06
2022-11-18T17:39:18.313Z,58.73
2022-11-18T17:40:39.769Z,58.63
2022-11-18T17:42:17.756Z,58.56
2022-11-18T17:43:39.889Z,58.66
2022-11-18T17:45:03.380Z,58.44
2022-11-18T17:46:30.958Z,58.42
2022-11-18T17:47:56.982Z,58.07
2022-11-18T17:49:24.652Z,57.98
2022-11-18T17:50:47.545Z,58.15
2022-11-18T17:52:17.143Z,58.02
2022-11-18T17:53:43.268Z,58.07
2022-11-18T17:55:07.068Z,57.72
2022-11-18T17:56:32.828Z,57.66
2022-11-18T17:57:57.522Z,57.63
2022-11-18T17:59:19.038Z,57.61
2022-11-18T18:00:41.990Z,57.76
2022-11-18T18:02:04.539Z,57.63
2022-11-18T18:03:29.856Z,57.45
2022-11-18T18:04:58.399Z,57.73
2022-11-18T18:06:25.031Z,57.35
2022-11-18T18:07:48.675Z,57.63
2022-11-18T18:09:30.493Z,57.23
2022-11-18T18:11:13.215Z,57.56
2022-11-18T18:12:59.190Z,57.53
2022-11-18T18:14:25.240Z,57.44
2022-11-18T18:15:52.999Z,57.36
2022-11-18T18:17:34.750Z,57.18
2022-11-18T18:18:57.784Z,57.21
2022-11-18T18:20:20.273Z,57.05
2022-11-18T18:21:48.259Z,57.07
2022-11-18T18:23:10.849Z,56.93
2022-11-18T18:24:35.970Z,56.90
2022-11-18T18:25:57.137Z,56.70
2022-11-18T18:27:21.013Z,56.46
2022-11-18T18:28:42.148Z,56.74
2022-11-18T18:30:12.590Z,56.57
2022-11-18T18:31:36.156Z,56.70
2022-11-18T18:32:58.183Z,56.55
2022-11-18T18:34:20.751Z,56.73
2022-11-18T18:35:43.868Z,56.67
2022-11-18T18:37:24.229Z,56.56
2022-11-18T18:39:01.620Z,56.71
2022-11-18T18:40:24.539Z,56.58
2022-11-18T18:41:47.158Z,56.79
2022-11-18T18:43:08.116Z,56.82
2022-11-18T18:44:53.132Z,56.88
2022-11-18T18:46:37.112Z,57.05
2022-11-18T18:48:23.704Z,56.98
2022-11-18T18:50:26.628Z,57.10
2022-11-18T18:52:01.923Z,57.11
2022-11-18T18:53:37.711Z,57.15
2022-11-18T18:55:10.952Z,57.12
2022-11-18T18:56:44.214Z,57.06
2022-11-18T18:58:11.869Z,57.23
2022-11-18T18:59:48.181Z,57.35
2022-11-18T19:01:51.927Z,57.32
2022-11-18T19:03:17.008Z,57.26
2022-11-18T19:04:42.223Z,57.46
2022-11-18T19:06:48.756Z,57.42
2022-11-18T19:08:09.114Z,57.66
2022-11-18T19:09:37.853Z,57.46
2022-11-18T19:11:09.182Z,57.65
2022-11-18T19:12:55.232Z,57.58
2022-11-18T19:14:51.101Z,57.91
2022-11-18T19:16:31.722Z,57.93
2022-11-18T19:18:06.498Z,57.85
2022-11-18T19:19:50.628Z,58.13